Armuchee, Georgia
Current Conditions -  °F | °C
As of 6:53 AM on Monday 24 Nov 2014 (Local Time) from KRMG Reporting Station
Broken Clouds Broken Clouds  
Wind Chill: 14°   Ceiling: 2500
Heat Index: 14°   Visibility: 10mi
Dew Point: 13°   Wind: 7mph
Humidity: 96%   Direction: 170°S
Pressure: 29.71"   Gusts: NA
Location:  34.39°N, 85.18°W
Report Text: KRMG 241153Z AUTO 17006KT 10SM BKN025 BKN031 14/13 A2971 RMK AO2 SLP057 70123 T01390133 10156 20139 53005
Loading
Personal Weather Stations






























Interactive Weather Map New forecast layout! Learn more

10-Day Weather Forecast

Advertisements
Track Severe Weather on mobile